sensor_id;sensor_type;location;lat;lon;timestamp;P1;durP1;ratioP1;P2;durP2;ratioP2
23117;SDS011;11728;50.624;6.014;2023-04-30T00:04:23;21.55;;;14.65;;
23117;SDS011;11728;50.624;6.014;2023-04-30T00:09:44;20.52;;;15.05;;
23117;SDS011;11728;50.624;6.014;2023-04-30T00:15:05;22.20;;;14.57;;
23117;SDS011;11728;50.624;6.014;2023-04-30T00:20:26;19.30;;;14.85;;
23117;SDS011;11728;50.624;6.014;2023-04-30T00:25:47;19.45;;;14.82;;
23117;SDS011;11728;50.624;6.014;2023-04-30T00:31:07;23.38;;;15.18;;
23117;SDS011;11728;50.624;6.014;2023-04-30T00:36:28;22.08;;;15.18;;
23117;SDS011;11728;50.624;6.014;2023-04-30T00:41:50;20.88;;;14.88;;
23117;SDS011;11728;50.624;6.014;2023-04-30T00:47:11;19.92;;;14.43;;
23117;SDS011;11728;50.624;6.014;2023-04-30T00:52:32;25.20;;;15.57;;
23117;SDS011;11728;50.624;6.014;2023-04-30T00:57:53;22.20;;;15.45;;
23117;SDS011;11728;50.624;6.014;2023-04-30T01:03:14;20.77;;;14.93;;
23117;SDS011;11728;50.624;6.014;2023-04-30T01:08:35;23.60;;;15.43;;
23117;SDS011;11728;50.624;6.014;2023-04-30T01:14:09;23.60;;;15.23;;
23117;SDS011;11728;50.624;6.014;2023-04-30T01:19:41;25.73;;;16.52;;
23117;SDS011;11728;50.624;6.014;2023-04-30T01:31:02;22.90;;;15.18;;
23117;SDS011;11728;50.624;6.014;2023-04-30T01:36:25;23.30;;;16.80;;
23117;SDS011;11728;50.624;6.014;2023-04-30T01:53:05;23.17;;;15.75;;
23117;SDS011;11728;50.624;6.014;2023-04-30T01:58:29;25.85;;;16.58;;
23117;SDS011;11728;50.624;6.014;2023-04-30T02:03:51;28.30;;;16.85;;
23117;SDS011;11728;50.624;6.014;2023-04-30T02:09:12;24.67;;;16.50;;
23117;SDS011;11728;50.624;6.014;2023-04-30T02:14:32;29.45;;;17.42;;
23117;SDS011;11728;50.624;6.014;2023-04-30T02:19:53;25.27;;;16.90;;
23117;SDS011;11728;50.624;6.014;2023-04-30T02:25:14;28.20;;;17.52;;
23117;SDS011;11728;50.624;6.014;2023-04-30T02:30:35;26.02;;;16.88;;
23117;SDS011;11728;50.624;6.014;2023-04-30T02:35:57;26.73;;;16.92;;
23117;SDS011;11728;50.624;6.014;2023-04-30T02:41:19;27.00;;;17.42;;
23117;SDS011;11728;50.624;6.014;2023-04-30T02:46:41;24.83;;;17.02;;
23117;SDS011;11728;50.624;6.014;2023-04-30T02:52:01;25.67;;;16.63;;
23117;SDS011;11728;50.624;6.014;2023-04-30T02:57:22;28.55;;;17.58;;
23117;SDS011;11728;50.624;6.014;2023-04-30T03:02:43;26.65;;;17.45;;
23117;SDS011;11728;50.624;6.014;2023-04-30T03:08:04;29.13;;;19.10;;
23117;SDS011;11728;50.624;6.014;2023-04-30T03:13:24;31.13;;;19.77;;
23117;SDS011;11728;50.624;6.014;2023-04-30T03:18:46;30.23;;;19.92;;
23117;SDS011;11728;50.624;6.014;2023-04-30T03:24:09;30.20;;;19.65;;
23117;SDS011;11728;50.624;6.014;2023-04-30T03:29:30;28.42;;;18.85;;
23117;SDS011;11728;50.624;6.014;2023-04-30T03:34:50;33.35;;;21.83;;
23117;SDS011;11728;50.624;6.014;2023-04-30T03:40:11;29.98;;;19.42;;
23117;SDS011;11728;50.624;6.014;2023-04-30T03:45:32;32.45;;;18.90;;
23117;SDS011;11728;50.624;6.014;2023-04-30T03:50:53;28.30;;;18.83;;
23117;SDS011;11728;50.624;6.014;2023-04-30T03:56:14;28.98;;;19.23;;
23117;SDS011;11728;50.624;6.014;2023-04-30T04:01:35;32.03;;;19.85;;
23117;SDS011;11728;50.624;6.014;2023-04-30T04:06:55;31.30;;;20.60;;
23117;SDS011;11728;50.624;6.014;2023-04-30T04:12:16;34.35;;;20.83;;
23117;SDS011;11728;50.624;6.014;2023-04-30T04:17:37;37.45;;;23.02;;
23117;SDS011;11728;50.624;6.014;2023-04-30T04:22:58;33.85;;;22.40;;
23117;SDS011;11728;50.624;6.014;2023-04-30T04:28:18;36.30;;;22.30;;
23117;SDS011;11728;50.624;6.014;2023-04-30T04:33:39;38.72;;;24.63;;
23117;SDS011;11728;50.624;6.014;2023-04-30T04:39:00;37.55;;;23.30;;
23117;SDS011;11728;50.624;6.014;2023-04-30T04:44:24;38.80;;;25.35;;
23117;SDS011;11728;50.624;6.014;2023-04-30T04:49:45;41.40;;;26.23;;
23117;SDS011;11728;50.624;6.014;2023-04-30T04:55:06;39.03;;;26.23;;
23117;SDS011;11728;50.624;6.014;2023-04-30T05:00:27;34.03;;;23.42;;
23117;SDS011;11728;50.624;6.014;2023-04-30T05:05:47;36.58;;;24.60;;
23117;SDS011;11728;50.624;6.014;2023-04-30T05:11:08;40.33;;;26.20;;
23117;SDS011;11728;50.624;6.014;2023-04-30T05:16:29;37.38;;;24.73;;
23117;SDS011;11728;50.624;6.014;2023-04-30T05:21:50;42.60;;;26.38;;
23117;SDS011;11728;50.624;6.014;2023-04-30T05:27:11;40.85;;;26.33;;
23117;SDS011;11728;50.624;6.014;2023-04-30T05:32:31;38.28;;;25.52;;
23117;SDS011;11728;50.624;6.014;2023-04-30T05:37:52;42.08;;;27.30;;
23117;SDS011;11728;50.624;6.014;2023-04-30T05:43:13;34.17;;;23.38;;
23117;SDS011;11728;50.624;6.014;2023-04-30T05:48:34;38.63;;;25.20;;
23117;SDS011;11728;50.624;6.014;2023-04-30T05:53:54;38.80;;;27.20;;
23117;SDS011;11728;50.624;6.014;2023-04-30T05:59:16;38.08;;;26.75;;
23117;SDS011;11728;50.624;6.014;2023-04-30T06:04:37;36.10;;;26.60;;
23117;SDS011;11728;50.624;6.014;2023-04-30T06:09:58;33.38;;;24.48;;
23117;SDS011;11728;50.624;6.014;2023-04-30T06:15:19;39.08;;;27.20;;
23117;SDS011;11728;50.624;6.014;2023-04-30T06:20:39;39.30;;;25.88;;
23117;SDS011;11728;50.624;6.014;2023-04-30T06:26:00;36.47;;;26.08;;
23117;SDS011;11728;50.624;6.014;2023-04-30T06:31:21;40.50;;;27.67;;
23117;SDS011;11728;50.624;6.014;2023-04-30T06:36:42;37.15;;;25.20;;
23117;SDS011;11728;50.624;6.014;2023-04-30T06:42:03;37.47;;;25.73;;
23117;SDS011;11728;50.624;6.014;2023-04-30T06:47:24;30.30;;;23.30;;
23117;SDS011;11728;50.624;6.014;2023-04-30T06:52:44;30.50;;;22.30;;
23117;SDS011;11728;50.624;6.014;2023-04-30T06:58:05;28.67;;;19.77;;
23117;SDS011;11728;50.624;6.014;2023-04-30T07:03:26;26.08;;;21.20;;
23117;SDS011;11728;50.624;6.014;2023-04-30T07:08:47;21.88;;;17.15;;
23117;SDS011;11728;50.624;6.014;2023-04-30T07:14:08;20.55;;;14.30;;
23117;SDS011;11728;50.624;6.014;2023-04-30T07:19:29;16.02;;;12.27;;
23117;SDS011;11728;50.624;6.014;2023-04-30T07:24:50;16.48;;;10.90;;
23117;SDS011;11728;50.624;6.014;2023-04-30T07:30:11;14.95;;;11.02;;
23117;SDS011;11728;50.624;6.014;2023-04-30T07:35:32;13.77;;;8.43;;
23117;SDS011;11728;50.624;6.014;2023-04-30T07:40:52;13.20;;;9.20;;
23117;SDS011;11728;50.624;6.014;2023-04-30T07:46:13;12.82;;;8.52;;
23117;SDS011;11728;50.624;6.014;2023-04-30T07:51:34;13.30;;;7.43;;
23117;SDS011;11728;50.624;6.014;2023-04-30T07:56:55;9.35;;;7.05;;
23117;SDS011;11728;50.624;6.014;2023-04-30T08:02:16;8.65;;;6.32;;
23117;SDS011;11728;50.624;6.014;2023-04-30T08:07:36;12.63;;;7.15;;
23117;SDS011;11728;50.624;6.014;2023-04-30T08:12:58;7.13;;;5.65;;
23117;SDS011;11728;50.624;6.014;2023-04-30T08:18:19;8.00;;;5.40;;
23117;SDS011;11728;50.624;6.014;2023-04-30T08:23:40;7.63;;;5.13;;
23117;SDS011;11728;50.624;6.014;2023-04-30T08:29:01;8.05;;;4.38;;
23117;SDS011;11728;50.624;6.014;2023-04-30T08:34:22;8.13;;;4.82;;
23117;SDS011;11728;50.624;6.014;2023-04-30T08:39:42;7.55;;;5.13;;
23117;SDS011;11728;50.624;6.014;2023-04-30T08:45:03;5.38;;;3.58;;
23117;SDS011;11728;50.624;6.014;2023-04-30T08:50:29;5.35;;;2.83;;
23117;SDS011;11728;50.624;6.014;2023-04-30T08:55:54;4.17;;;2.63;;
23117;SDS011;11728;50.624;6.014;2023-04-30T09:01:15;4.65;;;2.47;;
23117;SDS011;11728;50.624;6.014;2023-04-30T09:06:36;4.72;;;2.42;;
23117;SDS011;11728;50.624;6.014;2023-04-30T09:17:37;3.97;;;2.85;;
23117;SDS011;11728;50.624;6.014;2023-04-30T09:23:08;4.65;;;2.03;;
23117;SDS011;11728;50.624;6.014;2023-04-30T09:28:29;5.25;;;1.80;;
23117;SDS011;11728;50.624;6.014;2023-04-30T09:33:51;2.90;;;1.52;;
23117;SDS011;11728;50.624;6.014;2023-04-30T09:39:13;3.22;;;1.40;;
23117;SDS011;11728;50.624;6.014;2023-04-30T09:44:37;3.20;;;1.80;;
23117;SDS011;11728;50.624;6.014;2023-04-30T09:50:00;3.28;;;1.30;;
23117;SDS011;11728;50.624;6.014;2023-04-30T09:55:20;1.90;;;0.93;;
23117;SDS011;11728;50.624;6.014;2023-04-30T10:00:44;2.55;;;1.58;;
23117;SDS011;11728;50.624;6.014;2023-04-30T10:06:07;2.35;;;1.20;;
23117;SDS011;11728;50.624;6.014;2023-04-30T10:11:32;1.95;;;1.25;;
23117;SDS011;11728;50.624;6.014;2023-04-30T10:17:08;1.50;;;0.93;;
23117;SDS011;11728;50.624;6.014;2023-04-30T10:22:33;1.80;;;1.15;;
23117;SDS011;11728;50.624;6.014;2023-04-30T10:27:55;2.30;;;1.13;;
23117;SDS011;11728;50.624;6.014;2023-04-30T10:33:25;3.65;;;1.73;;
23117;SDS011;11728;50.624;6.014;2023-04-30T10:38:51;2.20;;;1.00;;
23117;SDS011;11728;50.624;6.014;2023-04-30T10:44:13;3.85;;;1.25;;
23117;SDS011;11728;50.624;6.014;2023-04-30T10:49:35;2.97;;;1.30;;
23117;SDS011;11728;50.624;6.014;2023-04-30T10:54:56;2.20;;;1.30;;
23117;SDS011;11728;50.624;6.014;2023-04-30T11:00:17;1.77;;;0.98;;
23117;SDS011;11728;50.624;6.014;2023-04-30T11:05:38;2.55;;;1.10;;
23117;SDS011;11728;50.624;6.014;2023-04-30T11:11:00;2.33;;;1.27;;
23117;SDS011;11728;50.624;6.014;2023-04-30T11:16:25;0.90;;;0.60;;
23117;SDS011;11728;50.624;6.014;2023-04-30T11:32:47;0.88;;;0.50;;
23117;SDS011;11728;50.624;6.014;2023-04-30T11:38:11;1.67;;;0.80;;
23117;SDS011;11728;50.624;6.014;2023-04-30T11:43:32;1.35;;;0.85;;
23117;SDS011;11728;50.624;6.014;2023-04-30T11:48:54;1.45;;;0.50;;
23117;SDS011;11728;50.624;6.014;2023-04-30T11:54:16;1.83;;;0.90;;
23117;SDS011;11728;50.624;6.014;2023-04-30T11:59:40;6.68;;;2.90;;
23117;SDS011;11728;50.624;6.014;2023-04-30T12:05:01;1.13;;;0.60;;
23117;SDS011;11728;50.624;6.014;2023-04-30T12:10:23;1.80;;;0.90;;
23117;SDS011;11728;50.624;6.014;2023-04-30T12:15:56;1.98;;;0.90;;
23117;SDS011;11728;50.624;6.014;2023-04-30T12:21:20;1.70;;;0.90;;
23117;SDS011;11728;50.624;6.014;2023-04-30T12:26:42;2.25;;;1.00;;
23117;SDS011;11728;50.624;6.014;2023-04-30T12:32:03;2.28;;;1.30;;
23117;SDS011;11728;50.624;6.014;2023-04-30T12:37:25;5.60;;;1.42;;
23117;SDS011;11728;50.624;6.014;2023-04-30T12:42:46;2.65;;;1.38;;
23117;SDS011;11728;50.624;6.014;2023-04-30T12:48:07;1.70;;;0.95;;
23117;SDS011;11728;50.624;6.014;2023-04-30T12:53:28;4.65;;;2.00;;
23117;SDS011;11728;50.624;6.014;2023-04-30T12:58:49;4.05;;;1.60;;
23117;SDS011;11728;50.624;6.014;2023-04-30T13:04:10;3.55;;;1.70;;
23117;SDS011;11728;50.624;6.014;2023-04-30T13:09:34;2.85;;;1.80;;
23117;SDS011;11728;50.624;6.014;2023-04-30T13:14:56;2.33;;;1.50;;
23117;SDS011;11728;50.624;6.014;2023-04-30T13:20:17;4.22;;;2.45;;
23117;SDS011;11728;50.624;6.014;2023-04-30T13:25:38;2.55;;;1.33;;
23117;SDS011;11728;50.624;6.014;2023-04-30T13:30:59;2.55;;;1.45;;
23117;SDS011;11728;50.624;6.014;2023-04-30T13:36:21;2.95;;;1.60;;
23117;SDS011;11728;50.624;6.014;2023-04-30T13:41:42;2.95;;;1.67;;
23117;SDS011;11728;50.624;6.014;2023-04-30T13:47:04;2.63;;;1.40;;
23117;SDS011;11728;50.624;6.014;2023-04-30T13:52:24;2.55;;;1.33;;
23117;SDS011;11728;50.624;6.014;2023-04-30T13:57:45;1.80;;;1.10;;
23117;SDS011;11728;50.624;6.014;2023-04-30T14:03:06;3.70;;;1.10;;
23117;SDS011;11728;50.624;6.014;2023-04-30T14:08:27;3.88;;;1.20;;
23117;SDS011;11728;50.624;6.014;2023-04-30T14:13:49;1.85;;;0.93;;
23117;SDS011;11728;50.624;6.014;2023-04-30T14:19:10;1.58;;;0.90;;
23117;SDS011;11728;50.624;6.014;2023-04-30T14:24:31;3.15;;;1.00;;
23117;SDS011;11728;50.624;6.014;2023-04-30T14:29:52;2.63;;;1.10;;
23117;SDS011;11728;50.624;6.014;2023-04-30T14:35:12;1.67;;;1.00;;
23117;SDS011;11728;50.624;6.014;2023-04-30T14:40:33;1.35;;;0.70;;
23117;SDS011;11728;50.624;6.014;2023-04-30T14:45:55;2.20;;;0.93;;
23117;SDS011;11728;50.624;6.014;2023-04-30T14:51:15;1.83;;;0.98;;
23117;SDS011;11728;50.624;6.014;2023-04-30T14:56:36;4.10;;;0.90;;
23117;SDS011;11728;50.624;6.014;2023-04-30T15:01:57;1.75;;;1.00;;
23117;SDS011;11728;50.624;6.014;2023-04-30T15:07:18;2.65;;;0.82;;
23117;SDS011;11728;50.624;6.014;2023-04-30T15:12:40;1.95;;;0.80;;
23117;SDS011;11728;50.624;6.014;2023-04-30T15:18:01;1.38;;;0.63;;
23117;SDS011;11728;50.624;6.014;2023-04-30T15:23:24;1.70;;;0.70;;
23117;SDS011;11728;50.624;6.014;2023-04-30T15:28:46;1.95;;;0.90;;
23117;SDS011;11728;50.624;6.014;2023-04-30T15:34:07;1.63;;;0.90;;
23117;SDS011;11728;50.624;6.014;2023-04-30T15:39:27;1.95;;;0.80;;
23117;SDS011;11728;50.624;6.014;2023-04-30T15:44:48;4.32;;;1.10;;
23117;SDS011;11728;50.624;6.014;2023-04-30T15:50:09;1.42;;;0.70;;
23117;SDS011;11728;50.624;6.014;2023-04-30T15:55:30;1.45;;;0.60;;
23117;SDS011;11728;50.624;6.014;2023-04-30T16:00:51;2.65;;;1.13;;
23117;SDS011;11728;50.624;6.014;2023-04-30T16:06:13;1.55;;;0.73;;
23117;SDS011;11728;50.624;6.014;2023-04-30T16:11:34;1.42;;;0.80;;
23117;SDS011;11728;50.624;6.014;2023-04-30T16:16:55;1.27;;;0.80;;
23117;SDS011;11728;50.624;6.014;2023-04-30T16:22:16;3.90;;;1.10;;
23117;SDS011;11728;50.624;6.014;2023-04-30T16:27:37;2.28;;;0.70;;
23117;SDS011;11728;50.624;6.014;2023-04-30T16:32:58;1.45;;;0.60;;
23117;SDS011;11728;50.624;6.014;2023-04-30T16:38:19;1.65;;;0.80;;
23117;SDS011;11728;50.624;6.014;2023-04-30T16:43:41;2.65;;;0.50;;
23117;SDS011;11728;50.624;6.014;2023-04-30T16:49:03;1.50;;;0.70;;
23117;SDS011;11728;50.624;6.014;2023-04-30T16:54:24;1.75;;;0.45;;
23117;SDS011;11728;50.624;6.014;2023-04-30T16:59:45;3.05;;;0.60;;
23117;SDS011;11728;50.624;6.014;2023-04-30T17:05:06;2.58;;;0.73;;
23117;SDS011;11728;50.624;6.014;2023-04-30T17:10:27;1.58;;;0.63;;
23117;SDS011;11728;50.624;6.014;2023-04-30T17:15:49;2.05;;;0.77;;
23117;SDS011;11728;50.624;6.014;2023-04-30T17:21:10;2.97;;;1.13;;
23117;SDS011;11728;50.624;6.014;2023-04-30T17:26:31;2.40;;;1.23;;
23117;SDS011;11728;50.624;6.014;2023-04-30T17:31:51;4.35;;;1.00;;
23117;SDS011;11728;50.624;6.014;2023-04-30T17:37:12;1.58;;;0.70;;
23117;SDS011;11728;50.624;6.014;2023-04-30T17:42:33;1.73;;;0.63;;
23117;SDS011;11728;50.624;6.014;2023-04-30T17:47:54;1.33;;;0.82;;
23117;SDS011;11728;50.624;6.014;2023-04-30T17:53:15;2.63;;;0.82;;
23117;SDS011;11728;50.624;6.014;2023-04-30T17:58:36;1.73;;;0.80;;
23117;SDS011;11728;50.624;6.014;2023-04-30T18:03:58;3.90;;;0.82;;
23117;SDS011;11728;50.624;6.014;2023-04-30T18:09:19;3.13;;;1.30;;
23117;SDS011;11728;50.624;6.014;2023-04-30T18:14:40;3.85;;;1.60;;
23117;SDS011;11728;50.624;6.014;2023-04-30T18:20:00;4.18;;;1.75;;
23117;SDS011;11728;50.624;6.014;2023-04-30T18:25:21;4.47;;;2.03;;
23117;SDS011;11728;50.624;6.014;2023-04-30T18:30:42;2.53;;;1.70;;
23117;SDS011;11728;50.624;6.014;2023-04-30T18:36:04;5.45;;;2.15;;
23117;SDS011;11728;50.624;6.014;2023-04-30T18:41:26;5.03;;;3.90;;
23117;SDS011;11728;50.624;6.014;2023-04-30T18:46:47;3.90;;;2.03;;
23117;SDS011;11728;50.624;6.014;2023-04-30T18:52:09;5.32;;;1.90;;
23117;SDS011;11728;50.624;6.014;2023-04-30T18:57:30;4.13;;;1.80;;
23117;SDS011;11728;50.624;6.014;2023-04-30T19:02:51;4.28;;;1.80;;
23117;SDS011;11728;50.624;6.014;2023-04-30T19:08:11;4.72;;;1.95;;
23117;SDS011;11728;50.624;6.014;2023-04-30T19:13:32;4.32;;;2.15;;
23117;SDS011;11728;50.624;6.014;2023-04-30T19:18:53;3.50;;;2.10;;
23117;SDS011;11728;50.624;6.014;2023-04-30T19:24:14;5.30;;;2.25;;
23117;SDS011;11728;50.624;6.014;2023-04-30T19:29:34;5.40;;;2.78;;
23117;SDS011;11728;50.624;6.014;2023-04-30T19:34:58;3.75;;;2.28;;
23117;SDS011;11728;50.624;6.014;2023-04-30T19:40:19;6.53;;;2.58;;
23117;SDS011;11728;50.624;6.014;2023-04-30T19:45:46;7.10;;;2.42;;
23117;SDS011;11728;50.624;6.014;2023-04-30T19:51:10;4.20;;;2.17;;
23117;SDS011;11728;50.624;6.014;2023-04-30T19:56:31;5.00;;;2.15;;
23117;SDS011;11728;50.624;6.014;2023-04-30T20:01:52;4.88;;;1.77;;
23117;SDS011;11728;50.624;6.014;2023-04-30T20:07:12;3.38;;;1.67;;
23117;SDS011;11728;50.624;6.014;2023-04-30T20:12:33;3.95;;;1.55;;
23117;SDS011;11728;50.624;6.014;2023-04-30T20:17:54;3.65;;;1.40;;
23117;SDS011;11728;50.624;6.014;2023-04-30T20:23:15;3.65;;;1.38;;
23117;SDS011;11728;50.624;6.014;2023-04-30T20:28:37;2.35;;;1.42;;
23117;SDS011;11728;50.624;6.014;2023-04-30T20:33:57;2.33;;;1.35;;
23117;SDS011;11728;50.624;6.014;2023-04-30T20:39:18;6.57;;;1.20;;
23117;SDS011;11728;50.624;6.014;2023-04-30T20:44:40;2.00;;;1.10;;
23117;SDS011;11728;50.624;6.014;2023-04-30T20:50:00;3.72;;;1.55;;
23117;SDS011;11728;50.624;6.014;2023-04-30T20:55:21;2.50;;;1.30;;
23117;SDS011;11728;50.624;6.014;2023-04-30T21:00:42;5.45;;;1.50;;
23117;SDS011;11728;50.624;6.014;2023-04-30T21:06:02;5.70;;;1.60;;
23117;SDS011;11728;50.624;6.014;2023-04-30T21:11:25;5.65;;;1.30;;
23117;SDS011;11728;50.624;6.014;2023-04-30T21:16:47;2.85;;;1.20;;
23117;SDS011;11728;50.624;6.014;2023-04-30T21:22:08;3.78;;;1.30;;
23117;SDS011;11728;50.624;6.014;2023-04-30T21:27:28;3.95;;;1.23;;
23117;SDS011;11728;50.624;6.014;2023-04-30T21:32:49;3.20;;;1.75;;
23117;SDS011;11728;50.624;6.014;2023-04-30T21:38:16;3.45;;;1.38;;
23117;SDS011;11728;50.624;6.014;2023-04-30T21:43:41;2.90;;;1.50;;
23117;SDS011;11728;50.624;6.014;2023-04-30T21:49:02;6.85;;;1.45;;
23117;SDS011;11728;50.624;6.014;2023-04-30T21:54:23;2.83;;;1.50;;
23117;SDS011;11728;50.624;6.014;2023-04-30T21:59:43;4.45;;;1.60;;
23117;SDS011;11728;50.624;6.014;2023-04-30T22:05:05;2.47;;;1.45;;
23117;SDS011;11728;50.624;6.014;2023-04-30T22:10:26;4.80;;;1.83;;
23117;SDS011;11728;50.624;6.014;2023-04-30T22:15:47;2.33;;;1.15;;
23117;SDS011;11728;50.624;6.014;2023-04-30T22:21:07;13.63;;;11.63;;
23117;SDS011;11728;50.624;6.014;2023-04-30T22:26:28;4.35;;;2.53;;
23117;SDS011;11728;50.624;6.014;2023-04-30T22:31:49;2.83;;;1.80;;
23117;SDS011;11728;50.624;6.014;2023-04-30T22:37:09;4.45;;;2.40;;
23117;SDS011;11728;50.624;6.014;2023-04-30T22:42:30;4.10;;;2.50;;
23117;SDS011;11728;50.624;6.014;2023-04-30T22:47:52;4.80;;;2.10;;
23117;SDS011;11728;50.624;6.014;2023-04-30T22:53:13;4.30;;;2.75;;
23117;SDS011;11728;50.624;6.014;2023-04-30T22:58:34;6.82;;;2.15;;
23117;SDS011;11728;50.624;6.014;2023-04-30T23:03:55;9.98;;;4.78;;
23117;SDS011;11728;50.624;6.014;2023-04-30T23:09:15;6.90;;;2.70;;
23117;SDS011;11728;50.624;6.014;2023-04-30T23:14:37;5.68;;;2.20;;
23117;SDS011;11728;50.624;6.014;2023-04-30T23:19:57;4.60;;;2.17;;
23117;SDS011;11728;50.624;6.014;2023-04-30T23:25:18;4.47;;;1.85;;
23117;SDS011;11728;50.624;6.014;2023-04-30T23:30:39;6.50;;;1.90;;
23117;SDS011;11728;50.624;6.014;2023-04-30T23:36:00;6.47;;;1.83;;
23117;SDS011;11728;50.624;6.014;2023-04-30T23:41:21;5.38;;;2.03;;
23117;SDS011;11728;50.624;6.014;2023-04-30T23:46:41;4.53;;;1.70;;
23117;SDS011;11728;50.624;6.014;2023-04-30T23:52:02;4.00;;;1.48;;
23117;SDS011;11728;50.624;6.014;2023-04-30T23:57:23;3.55;;;1.60;;
